createdAt,value
2022-08-26T00:00:56.674Z,99.37
2022-08-26T00:01:56.829Z,99.37
2022-08-26T00:02:56.627Z,99.57
2022-08-26T00:03:56.544Z,99.57
2022-08-26T00:04:56.388Z,99.57
2022-08-26T00:05:57.407Z,99.68
2022-08-26T00:06:56.349Z,99.98
2022-08-26T00:07:56.367Z,99.87
2022-08-26T00:08:56.346Z,99.99
2022-08-26T00:09:56.335Z,99.99
2022-08-26T00:10:57.127Z,99.99
2022-08-26T00:11:56.329Z,99.99
2022-08-26T00:12:56.276Z,99.99
2022-08-26T00:13:56.534Z,99.99
2022-08-26T00:14:56.330Z,99.99
2022-08-26T00:15:56.241Z,99.99
2022-08-26T00:16:58.232Z,99.99
2022-08-26T00:17:56.970Z,99.99
2022-08-26T00:18:56.312Z,99.99
2022-08-26T00:19:56.411Z,99.99
2022-08-26T00:20:56.331Z,99.99
2022-08-26T00:21:56.263Z,99.99
2022-08-26T00:22:56.281Z,99.99
2022-08-26T00:23:56.351Z,99.99
2022-08-26T00:24:56.296Z,99.99
2022-08-26T00:25:56.717Z,99.99
2022-08-26T00:26:56.345Z,99.99
2022-08-26T00:27:56.301Z,99.99
2022-08-26T00:28:57.983Z,99.99
2022-08-26T00:29:56.032Z,99.99
2022-08-26T00:30:56.065Z,99.99
2022-08-26T00:31:56.990Z,99.99
2022-08-26T00:32:56.804Z,99.99
2022-08-26T00:33:56.969Z,99.99
2022-08-26T00:34:55.976Z,99.99
2022-08-26T00:35:56.811Z,99.99
2022-08-26T00:36:55.945Z,99.99
2022-08-26T00:37:55.925Z,99.99
2022-08-26T00:38:55.879Z,99.99
2022-08-26T00:39:55.974Z,99.99
2022-08-26T00:40:57.837Z,99.99
2022-08-26T00:41:56.709Z,99.99
2022-08-26T00:42:56.616Z,99.99
2022-08-26T00:43:55.886Z,99.99
2022-08-26T00:44:55.799Z,99.99
2022-08-26T00:45:55.980Z,99.99
2022-08-26T00:46:55.830Z,99.99
2022-08-26T00:47:55.776Z,99.99
2022-08-26T00:48:55.822Z,99.99
2022-08-26T00:49:56.712Z,99.99
2022-08-26T00:50:55.757Z,99.99
2022-08-26T00:51:55.835Z,99.99
2022-08-26T00:52:56.686Z,99.99
2022-08-26T00:53:55.713Z,99.99
2022-08-26T00:54:55.703Z,99.99
2022-08-26T00:55:56.651Z,99.99
2022-08-26T00:56:55.653Z,99.99
2022-08-26T00:57:55.646Z,99.99
2022-08-26T00:58:55.633Z,99.99
2022-08-26T00:59:56.534Z,99.99
2022-08-26T01:00:55.662Z,99.99
2022-08-26T01:01:55.621Z,99.99
2022-08-26T01:02:55.565Z,99.99
2022-08-26T01:03:56.396Z,99.99
2022-08-26T01:04:56.524Z,99.99
2022-08-26T01:05:56.471Z,99.99
2022-08-26T01:06:55.531Z,99.99
2022-08-26T01:07:55.806Z,99.99
2022-08-26T01:08:55.478Z,99.99
2022-08-26T01:09:55.477Z,99.99
2022-08-26T01:10:55.914Z,99.99
2022-08-26T01:11:56.390Z,99.99
2022-08-26T01:12:56.297Z,99.99
2022-08-26T01:13:55.396Z,99.99
2022-08-26T01:14:55.437Z,99.99
2022-08-26T01:15:55.764Z,99.99
2022-08-26T01:16:55.852Z,99.99
2022-08-26T01:17:55.370Z,99.99
2022-08-26T01:18:55.390Z,99.99
2022-08-26T01:19:55.308Z,99.99
2022-08-26T01:20:57.801Z,99.99
2022-08-26T01:21:55.322Z,99.99
2022-08-26T01:22:55.331Z,99.99
2022-08-26T01:23:57.674Z,99.99
2022-08-26T01:24:55.342Z,99.99
2022-08-26T01:25:56.070Z,99.99
2022-08-26T01:26:55.242Z,99.99
2022-08-26T01:27:56.146Z,99.99
2022-08-26T01:28:56.042Z,99.99
2022-08-26T01:29:55.530Z,99.99
2022-08-26T01:30:55.222Z,99.99
2022-08-26T01:31:55.279Z,99.99
2022-08-26T01:32:55.913Z,99.99
2022-08-26T01:33:56.075Z,99.99
2022-08-26T01:34:55.974Z,99.99
2022-08-26T01:35:55.883Z,99.99
2022-08-26T01:36:55.797Z,99.99
2022-08-26T01:37:55.945Z,99.99
2022-08-26T01:38:55.846Z,99.99
2022-08-26T01:39:55.848Z,99.99
2022-08-26T01:40:55.047Z,99.99
2022-08-26T01:41:55.038Z,99.99
2022-08-26T01:42:55.978Z,99.99
2022-08-26T01:43:55.886Z,99.99
2022-08-26T01:44:55.045Z,99.99
2022-08-26T01:45:55.003Z,99.99
2022-08-26T01:46:54.957Z,99.99
2022-08-26T01:47:56.825Z,99.99
2022-08-26T01:48:55.663Z,99.99
2022-08-26T01:49:54.939Z,99.99
2022-08-26T01:50:55.038Z,99.99
2022-08-26T01:51:56.848Z,99.99
2022-08-26T01:52:55.782Z,99.99
2022-08-26T01:53:55.450Z,99.99
2022-08-26T01:54:55.514Z,99.99
2022-08-26T01:55:54.828Z,99.99
2022-08-26T01:56:55.141Z,99.99
2022-08-26T01:57:56.278Z,99.99
2022-08-26T01:58:55.725Z,99.99
2022-08-26T01:59:55.622Z,99.99
2022-08-26T02:00:54.838Z,99.99
2022-08-26T02:01:55.684Z,99.99
2022-08-26T02:02:54.735Z,99.99
2022-08-26T02:03:55.011Z,99.99
2022-08-26T02:04:54.772Z,99.99
2022-08-26T02:05:54.870Z,99.99
2022-08-26T02:06:55.465Z,99.99
2022-08-26T02:07:56.126Z,99.99
2022-08-26T02:08:54.674Z,99.99
2022-08-26T02:09:54.626Z,99.99
2022-08-26T02:10:55.600Z,99.99
2022-08-26T02:11:55.496Z,99.99
2022-08-26T02:12:54.597Z,99.99
2022-08-26T02:13:54.773Z,99.99
2022-08-26T02:14:55.458Z,99.99
2022-08-26T02:15:55.447Z,99.99
2022-08-26T02:16:55.278Z,99.99
2022-08-26T02:17:54.577Z,99.99
2022-08-26T02:18:54.539Z,99.99
2022-08-26T02:19:55.238Z,99.99
2022-08-26T02:20:54.478Z,99.99
2022-08-26T02:21:55.307Z,99.99
2022-08-26T02:22:55.211Z,99.99
2022-08-26T02:23:56.180Z,99.99
2022-08-26T02:24:55.273Z,99.99
2022-08-26T02:25:54.382Z,99.99
2022-08-26T02:26:55.341Z,99.99
2022-08-26T02:27:54.401Z,99.99
2022-08-26T02:28:55.176Z,99.99
2022-08-26T02:29:54.349Z,99.99
2022-08-26T02:30:55.746Z,99.99
2022-08-26T02:31:54.454Z,99.99
2022-08-26T02:32:55.279Z,99.99
2022-08-26T02:33:54.384Z,99.99
2022-08-26T02:34:55.145Z,99.99
2022-08-26T02:35:55.292Z,99.99
2022-08-26T02:36:54.657Z,99.99
2022-08-26T02:37:54.267Z,99.99
2022-08-26T02:38:57.053Z,99.99
2022-08-26T02:40:06.739Z,99.99
2022-08-26T02:40:55.220Z,99.99
2022-08-26T02:41:55.197Z,99.99
2022-08-26T02:42:55.993Z,99.99
2022-08-26T02:43:54.986Z,99.99
2022-08-26T02:44:54.887Z,99.99
2022-08-26T02:45:54.123Z,99.99
2022-08-26T02:46:55.034Z,99.99
2022-08-26T02:47:54.890Z,99.99
2022-08-26T02:48:55.018Z,99.99
2022-08-26T02:49:54.108Z,99.99
2022-08-26T02:50:54.822Z,99.99
2022-08-26T02:51:54.017Z,99.99
2022-08-26T02:52:54.893Z,99.99
2022-08-26T02:53:54.048Z,99.99
2022-08-26T02:54:54.019Z,99.99
2022-08-26T02:55:54.020Z,99.99
2022-08-26T02:56:56.062Z,99.99
2022-08-26T02:57:54.920Z,99.99
2022-08-26T02:58:53.941Z,99.99
2022-08-26T02:59:54.731Z,99.99
2022-08-26T03:00:54.917Z,99.99
2022-08-26T03:01:56.060Z,99.99
2022-08-26T03:02:53.914Z,99.99
2022-08-26T03:03:53.869Z,99.99
2022-08-26T03:04:57.983Z,99.99
2022-08-26T03:05:55.688Z,99.99
2022-08-26T03:06:53.824Z,99.99
2022-08-26T03:07:54.732Z,99.99
2022-08-26T03:08:53.801Z,99.99
2022-08-26T03:09:53.803Z,99.99
2022-08-26T03:10:54.704Z,99.99
2022-08-26T03:11:53.768Z,99.99
2022-08-26T03:12:54.519Z,99.99
2022-08-26T03:13:53.800Z,99.99
2022-08-26T03:14:53.710Z,99.99
2022-08-26T03:15:53.761Z,99.99
2022-08-26T03:16:53.717Z,99.99
2022-08-26T03:17:54.536Z,99.99
2022-08-26T03:18:54.436Z,99.99
2022-08-26T03:19:54.768Z,99.99
2022-08-26T03:20:54.504Z,99.99
2022-08-26T03:21:53.661Z,99.99
2022-08-26T03:22:56.237Z,99.99
2022-08-26T03:23:53.581Z,99.99
2022-08-26T03:24:54.208Z,99.99
2022-08-26T03:25:53.653Z,99.99
2022-08-26T03:26:54.439Z,99.99
2022-08-26T03:27:53.528Z,99.99
2022-08-26T03:28:54.501Z,99.99
2022-08-26T03:29:55.431Z,99.99
2022-08-26T03:30:53.458Z,99.99
2022-08-26T03:31:53.465Z,99.99
2022-08-26T03:32:54.425Z,99.99
2022-08-26T03:33:56.583Z,99.99
2022-08-26T03:34:55.202Z,99.99
2022-08-26T03:35:53.422Z,99.99
2022-08-26T03:36:54.248Z,99.99
2022-08-26T03:37:54.154Z,99.99
2022-08-26T03:38:53.412Z,99.99
2022-08-26T03:39:53.401Z,99.99
2022-08-26T03:40:53.424Z,99.99
2022-08-26T03:41:53.420Z,99.99
2022-08-26T03:42:54.195Z,99.99
2022-08-26T03:43:53.368Z,99.99
2022-08-26T03:44:53.315Z,99.99
2022-08-26T03:45:54.151Z,99.99
2022-08-26T03:46:54.112Z,99.99
2022-08-26T03:47:54.221Z,99.99
2022-08-26T03:48:54.154Z,99.99
2022-08-26T03:49:54.027Z,99.99
2022-08-26T03:50:54.187Z,99.99
2022-08-26T03:51:55.148Z,99.99
2022-08-26T03:52:54.029Z,99.99
2022-08-26T03:53:53.934Z,99.99
2022-08-26T03:54:54.059Z,99.99
2022-08-26T03:55:53.331Z,99.99
2022-08-26T03:56:54.121Z,99.99
2022-08-26T03:57:53.379Z,99.99
2022-08-26T03:58:53.929Z,99.99
2022-08-26T03:59:53.845Z,99.99
2022-08-26T04:00:55.693Z,99.99
2022-08-26T04:01:53.945Z,99.99
2022-08-26T04:02:53.476Z,99.99
2022-08-26T04:03:53.002Z,99.99
2022-08-26T04:04:53.385Z,99.99
2022-08-26T04:05:53.312Z,99.99
2022-08-26T04:06:53.392Z,99.99
2022-08-26T04:07:53.355Z,99.99
2022-08-26T04:08:53.322Z,99.99
2022-08-26T04:09:53.402Z,99.99
2022-08-26T04:10:53.803Z,99.99
2022-08-26T04:11:52.912Z,99.99
2022-08-26T04:12:52.895Z,99.99
2022-08-26T04:13:53.162Z,99.99
2022-08-26T04:14:52.853Z,99.99
2022-08-26T04:15:53.865Z,99.99
2022-08-26T04:16:53.734Z,99.99
2022-08-26T04:17:52.859Z,99.99
2022-08-26T04:18:53.799Z,99.99
2022-08-26T04:19:52.786Z,99.99
2022-08-26T04:20:52.818Z,99.99
2022-08-26T04:21:52.849Z,99.99
2022-08-26T04:22:52.788Z,99.99
2022-08-26T04:23:52.746Z,99.99
2022-08-26T04:24:52.731Z,99.99
2022-08-26T04:25:52.699Z,99.99
2022-08-26T04:26:53.554Z,99.99
2022-08-26T04:27:53.447Z,99.99
2022-08-26T04:28:52.660Z,99.99
2022-08-26T04:29:55.215Z,99.99
2022-08-26T04:30:52.845Z,99.99
2022-08-26T04:31:55.562Z,99.99
2022-08-26T04:32:52.751Z,99.99
2022-08-26T04:33:53.379Z,99.99
2022-08-26T04:34:52.649Z,99.99
2022-08-26T04:35:53.446Z,99.99
2022-08-26T04:36:53.352Z,99.99
2022-08-26T04:37:52.563Z,99.99
2022-08-26T04:38:53.411Z,99.99
2022-08-26T04:39:52.512Z,99.99
2022-08-26T04:40:52.522Z,99.99
2022-08-26T04:41:52.469Z,99.99
2022-08-26T04:42:53.285Z,99.99
2022-08-26T04:43:52.461Z,99.99
2022-08-26T04:44:52.442Z,99.99
2022-08-26T04:45:52.434Z,99.99
2022-08-26T04:46:53.174Z,99.99
2022-08-26T04:47:53.315Z,99.99
2022-08-26T04:48:53.238Z,99.99
2022-08-26T04:49:52.365Z,99.99
2022-08-26T04:50:52.334Z,99.99
2022-08-26T04:51:52.338Z,99.99
2022-08-26T04:52:52.305Z,99.99
2022-08-26T04:53:52.306Z,99.99
2022-08-26T04:54:52.264Z,99.99
2022-08-26T04:55:55.283Z,99.99
2022-08-26T04:56:52.775Z,99.99
2022-08-26T04:57:52.229Z,99.99
2022-08-26T04:58:52.225Z,99.99
2022-08-26T04:59:52.200Z,99.99
2022-08-26T05:00:52.199Z,99.99
2022-08-26T05:01:52.361Z,99.99
2022-08-26T05:02:53.163Z,99.99
2022-08-26T05:03:53.182Z,99.99
2022-08-26T05:04:52.158Z,99.99
2022-08-26T05:05:52.130Z,99.99
2022-08-26T05:06:55.725Z,99.99
2022-08-26T05:07:53.350Z,99.99
2022-08-26T05:08:52.061Z,99.99
2022-08-26T05:09:52.062Z,99.99
2022-08-26T05:10:52.912Z,99.99
2022-08-26T05:11:52.802Z,99.99
2022-08-26T05:12:52.091Z,99.99
2022-08-26T05:13:52.121Z,99.99
2022-08-26T05:14:53.030Z,99.99
2022-08-26T05:15:52.018Z,99.99
2022-08-26T05:16:52.838Z,99.99
2022-08-26T05:17:51.973Z,99.99
2022-08-26T05:18:51.954Z,99.99
2022-08-26T05:19:52.745Z,99.99
2022-08-26T05:20:51.927Z,99.99
2022-08-26T05:21:52.881Z,99.99
2022-08-26T05:22:51.925Z,99.99
2022-08-26T05:23:51.933Z,99.99
2022-08-26T05:24:51.846Z,99.99
2022-08-26T05:25:55.761Z,99.99
2022-08-26T05:26:53.695Z,99.99
2022-08-26T05:27:51.838Z,99.99
2022-08-26T05:28:54.859Z,99.99
2022-08-26T05:29:54.612Z,99.99
2022-08-26T05:30:53.761Z,99.99
2022-08-26T05:31:51.825Z,99.99
2022-08-26T05:32:55.264Z,99.99
2022-08-26T05:33:52.746Z,99.99
2022-08-26T05:34:51.769Z,99.99
2022-08-26T05:35:51.727Z,99.99
2022-08-26T05:36:52.453Z,99.99
2022-08-26T05:37:52.612Z,99.99
2022-08-26T05:38:51.854Z,99.99
2022-08-26T05:39:52.441Z,99.99
2022-08-26T05:40:52.816Z,99.99
2022-08-26T05:41:51.625Z,99.99
2022-08-26T05:42:51.631Z,99.99
2022-08-26T05:43:52.551Z,99.99
2022-08-26T05:44:55.385Z,99.99
2022-08-26T05:45:51.595Z,99.99
2022-08-26T05:46:51.711Z,99.99
2022-08-26T05:47:53.025Z,99.99
2022-08-26T05:48:51.529Z,99.99
2022-08-26T05:49:51.857Z,99.99
2022-08-26T05:50:51.514Z,99.99
2022-08-26T05:51:51.499Z,99.99
2022-08-26T05:52:52.633Z,99.99
2022-08-26T05:53:54.449Z,99.99
2022-08-26T05:54:52.273Z,99.99
2022-08-26T05:55:52.427Z,99.99
2022-08-26T05:56:52.396Z,99.48
2022-08-26T05:57:51.432Z,99.13
2022-08-26T05:58:52.152Z,98.73
2022-08-26T05:59:51.377Z,98.18
2022-08-26T06:00:51.348Z,97.99
2022-08-26T06:01:52.192Z,97.14
2022-08-26T06:02:52.323Z,96.53
2022-08-26T06:03:52.190Z,96.39
2022-08-26T06:04:51.289Z,95.84
2022-08-26T06:05:51.337Z,95.15
2022-08-26T06:06:52.173Z,94.40
2022-08-26T06:07:52.041Z,94.20
2022-08-26T06:08:52.236Z,93.85
2022-08-26T06:09:51.233Z,93.05
2022-08-26T06:10:52.033Z,93.21
2022-08-26T06:11:51.226Z,92.47
2022-08-26T06:12:52.073Z,91.77
2022-08-26T06:13:51.232Z,91.53
2022-08-26T06:14:52.134Z,90.43
2022-08-26T06:15:51.230Z,90.93
2022-08-26T06:16:51.943Z,90.63
2022-08-26T06:17:52.103Z,90.19
2022-08-26T06:18:51.101Z,89.79
2022-08-26T06:19:51.906Z,89.49
2022-08-26T06:20:57.195Z,89.19
2022-08-26T06:21:54.792Z,89.49
2022-08-26T06:22:51.146Z,88.85
2022-08-26T06:23:52.068Z,88.35
2022-08-26T06:24:51.965Z,87.12
2022-08-26T06:25:51.847Z,87.02
2022-08-26T06:26:51.040Z,86.91
2022-08-26T06:27:51.036Z,86.47
2022-08-26T06:28:51.820Z,86.18
2022-08-26T06:29:51.068Z,85.58
2022-08-26T06:30:51.109Z,85.34
2022-08-26T06:31:51.016Z,85.10
2022-08-26T06:32:51.000Z,84.60
2022-08-26T06:33:51.850Z,84.05
2022-08-26T06:34:50.925Z,84.90
2022-08-26T06:35:50.892Z,84.11
2022-08-26T06:36:53.180Z,83.91
2022-08-26T06:37:50.851Z,83.81
2022-08-26T06:38:51.636Z,83.81
2022-08-26T06:39:51.804Z,83.81
2022-08-26T06:40:51.687Z,83.57
2022-08-26T06:41:51.596Z,82.68
2022-08-26T06:42:50.791Z,82.57
2022-08-26T06:43:51.653Z,82.24
2022-08-26T06:44:51.555Z,82.73
2022-08-26T06:45:50.833Z,81.70
2022-08-26T06:46:51.378Z,81.70
2022-08-26T06:47:50.725Z,80.71
2022-08-26T06:48:50.728Z,81.07
2022-08-26T06:49:51.107Z,79.91
2022-08-26T06:50:50.753Z,80.47
2022-08-26T06:51:51.666Z,80.27
2022-08-26T06:52:50.697Z,79.94
2022-08-26T06:53:50.608Z,79.40
2022-08-26T06:54:50.635Z,78.31
2022-08-26T06:55:51.857Z,78.11
2022-08-26T06:56:50.920Z,77.82
2022-08-26T06:57:51.338Z,78.55
2022-08-26T06:58:51.534Z,79.35
2022-08-26T06:59:51.248Z,78.55
2022-08-26T07:00:50.511Z,79.01
2022-08-26T07:01:50.637Z,78.41
2022-08-26T07:02:50.540Z,77.78
2022-08-26T07:03:50.523Z,77.15
2022-08-26T07:04:51.219Z,76.75
2022-08-26T07:05:51.336Z,76.26
2022-08-26T07:06:52.349Z,75.56
2022-08-26T07:07:51.441Z,76.06
2022-08-26T07:08:50.385Z,76.81
2022-08-26T07:09:52.647Z,75.63
2022-08-26T07:10:50.418Z,74.93
2022-08-26T07:11:51.361Z,75.63
2022-08-26T07:12:51.203Z,75.23
2022-08-26T07:13:50.355Z,75.13
2022-08-26T07:14:51.236Z,74.99
2022-08-26T07:15:51.210Z,73.91
2022-08-26T07:16:52.069Z,73.91
2022-08-26T07:17:50.429Z,74.07
2022-08-26T07:18:50.399Z,74.13
2022-08-26T07:19:50.378Z,73.31
2022-08-26T07:20:50.438Z,73.11
2022-08-26T07:21:50.399Z,72.68
2022-08-26T07:22:50.470Z,71.00
2022-08-26T07:23:50.442Z,71.00
2022-08-26T07:24:51.050Z,71.89
2022-08-26T07:25:50.193Z,71.06
2022-08-26T07:26:50.351Z,71.13
2022-08-26T07:27:53.982Z,70.14
2022-08-26T07:28:50.383Z,70.01
2022-08-26T07:29:51.084Z,69.52
2022-08-26T07:30:51.040Z,69.52
2022-08-26T07:31:50.120Z,69.12
2022-08-26T07:32:50.063Z,69.29
2022-08-26T07:33:50.425Z,68.79
2022-08-26T07:34:50.054Z,68.66
2022-08-26T07:35:51.030Z,68.33
2022-08-26T07:36:50.239Z,67.25
2022-08-26T07:37:55.061Z,66.27
2022-08-26T07:38:51.757Z,66.82
2022-08-26T07:39:50.049Z,68.20
2022-08-26T07:40:50.801Z,68.56
2022-08-26T07:41:50.377Z,67.38
2022-08-26T07:42:50.925Z,67.48
2022-08-26T07:43:49.947Z,67.08
2022-08-26T07:44:50.403Z,67.08
2022-08-26T07:45:50.514Z,66.99
2022-08-26T07:46:52.294Z,66.49
2022-08-26T07:47:50.384Z,66.39
2022-08-26T07:48:49.863Z,67.02
2022-08-26T07:49:52.841Z,67.29
2022-08-26T07:50:50.861Z,67.22
2022-08-26T07:51:49.935Z,66.92
2022-08-26T07:52:50.667Z,67.02
2022-08-26T07:53:52.672Z,66.72
2022-08-26T07:54:49.793Z,67.08
2022-08-26T07:55:49.779Z,66.69
2022-08-26T07:56:49.756Z,66.89
2022-08-26T07:57:49.745Z,65.80
2022-08-26T07:58:51.745Z,66.30
2022-08-26T07:59:50.509Z,65.91
2022-08-26T08:00:50.674Z,66.17
2022-08-26T08:01:49.696Z,66.24
2022-08-26T08:02:49.787Z,66.03
2022-08-26T08:03:50.411Z,65.35
2022-08-26T08:04:49.690Z,64.56
2022-08-26T08:05:49.660Z,64.56
2022-08-26T08:06:49.625Z,64.92
2022-08-26T08:07:49.740Z,64.36
2022-08-26T08:08:50.699Z,64.36
2022-08-26T08:09:49.755Z,64.86
2022-08-26T08:10:49.721Z,64.43
2022-08-26T08:11:49.814Z,63.91
2022-08-26T08:12:49.552Z,63.51
2022-08-26T08:13:49.504Z,63.22
2022-08-26T08:14:52.457Z,63.29
2022-08-26T08:15:50.219Z,62.90
2022-08-26T08:16:51.263Z,62.60
2022-08-26T08:17:50.451Z,62.60
2022-08-26T08:18:49.445Z,62.79
2022-08-26T08:19:50.378Z,63.16
2022-08-26T08:21:04.672Z,63.16
2022-08-26T08:21:52.397Z,62.15
2022-08-26T08:22:49.378Z,60.97
2022-08-26T08:23:49.387Z,60.97
2022-08-26T08:24:53.198Z,62.05
2022-08-26T08:25:49.395Z,61.36
2022-08-26T08:26:49.424Z,61.65
2022-08-26T08:27:50.122Z,61.04
2022-08-26T08:28:50.281Z,59.86
2022-08-26T08:29:50.183Z,60.28
2022-08-26T08:30:50.149Z,61.04
2022-08-26T08:31:58.369Z,60.15
2022-08-26T08:32:51.210Z,60.03
2022-08-26T08:33:49.257Z,61.37
2022-08-26T08:34:49.692Z,60.03
2022-08-26T08:35:49.786Z,58.57
2022-08-26T08:36:49.829Z,59.32
2022-08-26T08:37:49.578Z,57.26
2022-08-26T08:38:50.095Z,58.83
2022-08-26T08:39:49.305Z,57.56
2022-08-26T08:40:50.148Z,58.80
2022-08-26T08:41:49.155Z,58.22
2022-08-26T08:42:49.991Z,57.36
2022-08-26T08:43:49.138Z,57.17
2022-08-26T08:44:51.930Z,56.85
2022-08-26T08:45:49.664Z,58.48
2022-08-26T08:46:49.103Z,57.01
2022-08-26T08:47:50.509Z,57.60
2022-08-26T08:48:49.899Z,56.72
2022-08-26T08:49:49.806Z,58.38
2022-08-26T08:50:49.960Z,56.10
2022-08-26T08:51:49.022Z,55.52
2022-08-26T08:52:49.121Z,58.26
2022-08-26T08:53:49.925Z,60.80
2022-08-26T08:54:49.832Z,57.97
2022-08-26T08:55:49.002Z,56.96
2022-08-26T08:56:49.910Z,54.42
2022-08-26T08:57:49.808Z,56.27
2022-08-26T08:58:49.705Z,55.96
2022-08-26T08:59:49.766Z,56.02
2022-08-26T09:00:49.055Z,55.86
2022-08-26T09:01:52.255Z,53.61
2022-08-26T09:02:48.921Z,53.68
2022-08-26T09:03:48.866Z,53.75
2022-08-26T09:04:50.789Z,54.41
2022-08-26T09:05:49.800Z,55.36
2022-08-26T09:06:48.887Z,54.11
2022-08-26T09:07:49.609Z,54.50
2022-08-26T09:08:50.558Z,52.36
2022-08-26T09:09:49.669Z,54.38
2022-08-26T09:10:49.206Z,53.67
2022-08-26T09:11:49.739Z,53.87
2022-08-26T09:12:48.733Z,50.82
2022-08-26T09:13:48.742Z,50.92
2022-08-26T09:14:48.712Z,53.06
2022-08-26T09:15:50.652Z,52.48
2022-08-26T09:16:49.550Z,51.41
2022-08-26T09:17:49.675Z,51.67
2022-08-26T09:18:48.663Z,49.83
2022-08-26T09:19:48.643Z,51.55
2022-08-26T09:20:49.645Z,50.51
2022-08-26T09:21:53.338Z,50.12
2022-08-26T09:22:49.445Z,51.55
2022-08-26T09:23:49.761Z,49.90
2022-08-26T09:24:49.528Z,50.85
2022-08-26T09:25:49.376Z,48.73
2022-08-26T09:26:50.528Z,49.41
2022-08-26T09:27:50.316Z,50.68
2022-08-26T09:28:49.379Z,52.12
2022-08-26T09:29:50.445Z,53.78
2022-08-26T09:30:48.552Z,53.34
2022-08-26T09:31:49.351Z,55.87
2022-08-26T09:32:55.881Z,55.53
2022-08-26T09:33:50.440Z,55.99
2022-08-26T09:34:49.318Z,56.75
2022-08-26T09:35:49.222Z,54.74
2022-08-26T09:36:48.432Z,54.13
2022-08-26T09:38:49.193Z,55.15
2022-08-26T09:39:48.424Z,56.20
2022-08-26T09:40:49.253Z,52.97
2022-08-26T09:41:49.384Z,51.48
2022-08-26T09:42:48.404Z,51.29
2022-08-26T09:43:49.224Z,51.75
2022-08-26T09:44:48.336Z,52.31
2022-08-26T09:45:51.130Z,50.26
2022-08-26T09:46:49.186Z,51.70
2022-08-26T09:47:49.095Z,50.53
2022-08-26T09:48:51.827Z,50.90
2022-08-26T09:49:49.157Z,50.99
2022-08-26T09:50:48.257Z,50.02
2022-08-26T09:51:50.189Z,50.99
2022-08-26T09:52:48.231Z,52.36
2022-08-26T09:53:48.240Z,49.44
2022-08-26T09:54:49.189Z,50.58
2022-08-26T09:55:48.188Z,50.26
2022-08-26T09:56:49.000Z,48.71
2022-08-26T09:57:48.185Z,51.82
2022-08-26T09:58:48.172Z,49.37
2022-08-26T09:59:48.141Z,49.66
2022-08-26T10:00:49.163Z,49.76
2022-08-26T10:01:49.138Z,50.73
2022-08-26T10:02:49.530Z,48.41
2022-08-26T10:03:49.088Z,48.03
2022-08-26T10:04:48.094Z,51.21
2022-08-26T10:05:48.081Z,49.37
2022-08-26T10:06:49.069Z,48.95
2022-08-26T10:07:49.055Z,49.54
2022-08-26T10:08:48.912Z,48.78
2022-08-26T10:09:48.020Z,48.39
2022-08-26T10:10:48.935Z,51.33
2022-08-26T10:11:47.978Z,49.87
2022-08-26T10:12:48.022Z,49.61
2022-08-26T10:13:47.976Z,50.16
2022-08-26T10:14:47.977Z,50.19
2022-08-26T10:15:50.717Z,50.07
2022-08-26T10:16:48.044Z,49.87
2022-08-26T10:17:47.975Z,50.80
2022-08-26T10:18:48.684Z,49.05
2022-08-26T10:19:56.765Z,48.41
2022-08-26T10:20:49.771Z,51.17
2022-08-26T10:21:49.830Z,50.92
2022-08-26T10:22:48.811Z,50.85
2022-08-26T10:23:48.715Z,52.38
2022-08-26T10:24:51.888Z,51.14
2022-08-26T10:25:48.781Z,51.53
2022-08-26T10:26:47.812Z,52.63
2022-08-26T10:27:53.432Z,51.97
2022-08-26T10:28:49.770Z,51.80
2022-08-26T10:29:48.665Z,53.71
2022-08-26T10:30:47.817Z,53.25
2022-08-26T10:31:47.929Z,55.69
2022-08-26T10:32:47.792Z,54.91
2022-08-26T10:33:47.795Z,54.93
2022-08-26T10:34:48.687Z,55.03
2022-08-26T10:35:47.730Z,54.98
2022-08-26T10:37:13.418Z,55.00
2022-08-26T10:37:48.665Z,54.61
2022-08-26T10:38:47.669Z,56.10
2022-08-26T10:39:47.657Z,55.69
2022-08-26T10:40:49.138Z,53.75
2022-08-26T10:41:48.521Z,51.51
2022-08-26T10:42:47.677Z,50.85
2022-08-26T10:43:49.587Z,51.18
2022-08-26T10:44:47.608Z,49.75
2022-08-26T10:45:48.480Z,45.85
2022-08-26T10:46:48.557Z,45.22
2022-08-26T10:47:47.584Z,44.62
2022-08-26T10:48:48.369Z,43.44
2022-08-26T10:49:47.575Z,44.96
2022-08-26T10:50:47.730Z,43.41
2022-08-26T10:51:48.334Z,42.57
2022-08-26T10:52:47.513Z,46.42
2022-08-26T10:53:48.397Z,44.26
2022-08-26T10:54:48.057Z,42.82
2022-08-26T10:55:47.455Z,43.51
2022-08-26T10:56:48.359Z,42.96
2022-08-26T10:57:48.265Z,44.19
2022-08-26T10:58:47.427Z,45.06
2022-08-26T10:59:48.345Z,45.66
2022-08-26T11:00:47.487Z,46.17
2022-08-26T11:01:51.118Z,44.72
2022-08-26T11:02:47.634Z,45.47
2022-08-26T11:03:48.223Z,46.04
2022-08-26T11:04:48.305Z,47.88
2022-08-26T11:05:49.301Z,49.19
2022-08-26T11:06:47.302Z,51.09
2022-08-26T11:07:48.073Z,52.70
2022-08-26T11:08:48.234Z,53.03
2022-08-26T11:09:47.301Z,55.03
2022-08-26T11:10:48.041Z,54.96
2022-08-26T11:11:48.208Z,53.78
2022-08-26T11:12:49.133Z,53.81
2022-08-26T11:13:48.017Z,57.53
2022-08-26T11:14:56.155Z,54.99
2022-08-26T11:15:49.160Z,56.72
2022-08-26T11:16:49.229Z,51.63
2022-08-26T11:17:48.147Z,54.65
2022-08-26T11:18:47.175Z,50.09
2022-08-26T11:20:00.328Z,47.18
2022-08-26T11:20:48.196Z,46.36
2022-08-26T11:21:50.708Z,43.79
2022-08-26T11:22:48.295Z,44.81
2022-08-26T11:23:50.702Z,43.03
2022-08-26T11:24:47.111Z,40.96
2022-08-26T11:25:47.887Z,41.33
2022-08-26T11:26:56.050Z,41.40
2022-08-26T11:27:48.966Z,42.97
2022-08-26T11:28:47.471Z,41.33
2022-08-26T11:29:47.452Z,40.92
2022-08-26T11:30:47.509Z,41.57
2022-08-26T11:31:48.032Z,39.64
2022-08-26T11:32:48.675Z,39.64
2022-08-26T11:33:47.882Z,40.03
2022-08-26T11:34:46.953Z,39.66
2022-08-26T11:35:47.946Z,41.30
2022-08-26T11:36:46.963Z,42.87
2022-08-26T11:37:47.275Z,40.47
2022-08-26T11:38:47.913Z,40.67
2022-08-26T11:39:52.627Z,41.93
2022-08-26T11:40:47.995Z,42.10
2022-08-26T11:41:47.466Z,43.04
2022-08-26T11:42:47.822Z,41.81
2022-08-26T11:43:48.815Z,41.40
2022-08-26T11:44:49.177Z,40.99
2022-08-26T11:45:47.857Z,39.16
2022-08-26T11:46:46.827Z,41.84
2022-08-26T11:47:49.330Z,40.30
2022-08-26T11:48:46.842Z,40.03
2022-08-26T11:49:46.796Z,40.76
2022-08-26T11:50:46.864Z,38.72
2022-08-26T11:51:48.342Z,38.43
2022-08-26T11:52:46.762Z,37.76
2022-08-26T11:53:47.147Z,39.29
2022-08-26T11:54:46.737Z,38.72
2022-08-26T11:55:47.295Z,37.18
2022-08-26T11:56:47.724Z,39.11
2022-08-26T11:57:46.707Z,37.58
2022-08-26T11:58:47.528Z,37.46
2022-08-26T11:59:46.737Z,37.58
2022-08-26T12:00:46.677Z,37.66
2022-08-26T12:01:46.640Z,38.64
2022-08-26T12:02:46.655Z,37.79
2022-08-26T12:03:46.736Z,36.06
2022-08-26T12:04:46.724Z,39.06
2022-08-26T12:05:47.366Z,39.43
2022-08-26T12:06:47.532Z,38.85
2022-08-26T12:07:47.443Z,38.68
2022-08-26T12:08:47.338Z,38.97
2022-08-26T12:09:47.500Z,38.78
2022-08-26T12:10:48.489Z,40.32
2022-08-26T12:11:47.311Z,41.02
2022-08-26T12:12:46.533Z,40.92
2022-08-26T12:13:46.501Z,41.17
2022-08-26T12:14:46.480Z,39.04
2022-08-26T12:15:46.522Z,40.88
2022-08-26T12:16:46.522Z,40.96
2022-08-26T12:17:49.419Z,40.65
2022-08-26T12:18:47.435Z,40.09
2022-08-26T12:19:46.735Z,39.49
2022-08-26T12:20:46.582Z,41.05
2022-08-26T12:21:48.353Z,38.76
2022-08-26T12:22:47.975Z,40.71
2022-08-26T12:23:46.799Z,40.71
2022-08-26T12:24:46.406Z,41.99
2022-08-26T12:25:47.246Z,42.86
2022-08-26T12:26:46.416Z,40.56
2022-08-26T12:27:51.812Z,41.97
2022-08-26T12:28:48.232Z,44.07
2022-08-26T12:29:48.576Z,46.52
2022-08-26T12:30:46.309Z,45.97
2022-08-26T12:31:47.237Z,44.54
2022-08-26T12:32:52.830Z,42.14
2022-08-26T12:33:47.339Z,40.75
2022-08-26T12:34:46.283Z,41.46
2022-08-26T12:35:48.465Z,39.92
2022-08-26T12:36:47.276Z,40.92
2022-08-26T12:37:47.113Z,42.97
2022-08-26T12:38:46.436Z,40.69
2022-08-26T12:39:46.236Z,43.29
2022-08-26T12:40:47.077Z,41.82
2022-08-26T12:41:46.985Z,41.58
2022-08-26T12:42:47.158Z,38.93
2022-08-26T12:43:46.478Z,43.32
2022-08-26T12:44:54.337Z,42.97
2022-08-26T12:45:47.952Z,42.13
2022-08-26T12:46:49.819Z,42.51
2022-08-26T12:47:46.919Z,40.34
2022-08-26T12:48:48.050Z,40.67
2022-08-26T12:49:46.109Z,42.92
2022-08-26T12:50:46.892Z,43.60
2022-08-26T12:51:46.792Z,42.38
2022-08-26T12:52:46.090Z,42.93
2022-08-26T12:53:46.850Z,44.04